sensor_id;sensor_type;location;lat;lon;timestamp;P1;durP1;ratioP1;P2;durP2;ratioP2
28373;SDS011;15616;40.148;-102.718;2022-10-22T00:01:19;19.60;;;4.05;;
28373;SDS011;15616;40.148;-102.718;2022-10-22T00:03:45;16.63;;;3.65;;
28373;SDS011;15616;40.148;-102.718;2022-10-22T00:06:11;13.80;;;3.63;;
28373;SDS011;15616;40.148;-102.718;2022-10-22T00:08:37;12.25;;;3.10;;
28373;SDS011;15616;40.148;-102.718;2022-10-22T00:11:07;13.88;;;4.03;;
28373;SDS011;15616;40.148;-102.718;2022-10-22T00:13:44;19.70;;;3.95;;
28373;SDS011;15616;40.148;-102.718;2022-10-22T00:16:10;17.33;;;3.90;;
28373;SDS011;15616;40.148;-102.718;2022-10-22T00:18:36;18.48;;;3.70;;
28373;SDS011;15616;40.148;-102.718;2022-10-22T00:21:03;16.42;;;3.40;;
28373;SDS011;15616;40.148;-102.718;2022-10-22T00:23:30;13.35;;;3.28;;
28373;SDS011;15616;40.148;-102.718;2022-10-22T00:25:56;18.02;;;3.83;;
28373;SDS011;15616;40.148;-102.718;2022-10-22T00:28:21;11.68;;;3.50;;
28373;SDS011;15616;40.148;-102.718;2022-10-22T00:30:53;16.65;;;3.42;;
28373;SDS011;15616;40.148;-102.718;2022-10-22T00:33:23;15.60;;;3.40;;
28373;SDS011;15616;40.148;-102.718;2022-10-22T00:35:49;17.98;;;3.47;;
28373;SDS011;15616;40.148;-102.718;2022-10-22T00:38:15;14.90;;;3.80;;
28373;SDS011;15616;40.148;-102.718;2022-10-22T00:40:41;17.45;;;3.65;;
28373;SDS011;15616;40.148;-102.718;2022-10-22T00:43:10;13.57;;;3.53;;
28373;SDS011;15616;40.148;-102.718;2022-10-22T00:45:37;13.98;;;3.28;;
28373;SDS011;15616;40.148;-102.718;2022-10-22T00:48:04;16.60;;;3.97;;
28373;SDS011;15616;40.148;-102.718;2022-10-22T00:50:32;16.75;;;3.65;;
28373;SDS011;15616;40.148;-102.718;2022-10-22T00:53:12;12.25;;;3.63;;
28373;SDS011;15616;40.148;-102.718;2022-10-22T00:55:41;13.73;;;3.63;;
28373;SDS011;15616;40.148;-102.718;2022-10-22T00:58:09;16.27;;;3.72;;
28373;SDS011;15616;40.148;-102.718;2022-10-22T01:00:36;16.48;;;3.33;;
28373;SDS011;15616;40.148;-102.718;2022-10-22T01:03:02;13.55;;;3.25;;
28373;SDS011;15616;40.148;-102.718;2022-10-22T01:05:30;11.93;;;3.20;;
28373;SDS011;15616;40.148;-102.718;2022-10-22T01:08:00;16.30;;;3.70;;
28373;SDS011;15616;40.148;-102.718;2022-10-22T01:13:16;12.32;;;3.50;;
28373;SDS011;15616;40.148;-102.718;2022-10-22T01:16:07;13.40;;;3.65;;
28373;SDS011;15616;40.148;-102.718;2022-10-22T01:18:50;12.32;;;3.38;;
28373;SDS011;15616;40.148;-102.718;2022-10-22T01:21:59;15.38;;;3.53;;
28373;SDS011;15616;40.148;-102.718;2022-10-22T01:29:49;15.48;;;3.75;;
28373;SDS011;15616;40.148;-102.718;2022-10-22T01:32:38;9.98;;;3.08;;
28373;SDS011;15616;40.148;-102.718;2022-10-22T01:35:11;16.25;;;3.60;;
28373;SDS011;15616;40.148;-102.718;2022-10-22T01:37:45;10.88;;;3.03;;
28373;SDS011;15616;40.148;-102.718;2022-10-22T01:40:15;15.73;;;3.78;;
28373;SDS011;15616;40.148;-102.718;2022-10-22T01:42:52;11.13;;;3.13;;
28373;SDS011;15616;40.148;-102.718;2022-10-22T01:45:22;9.52;;;3.20;;
28373;SDS011;15616;40.148;-102.718;2022-10-22T01:47:53;9.85;;;3.10;;
28373;SDS011;15616;40.148;-102.718;2022-10-22T01:53:22;13.70;;;3.03;;
28373;SDS011;15616;40.148;-102.718;2022-10-22T01:58:30;13.45;;;3.42;;
28373;SDS011;15616;40.148;-102.718;2022-10-22T02:01:03;13.38;;;2.85;;
28373;SDS011;15616;40.148;-102.718;2022-10-22T02:06:42;13.35;;;3.25;;
28373;SDS011;15616;40.148;-102.718;2022-10-22T02:09:11;12.77;;;3.53;;
28373;SDS011;15616;40.148;-102.718;2022-10-22T02:11:39;8.32;;;3.13;;
28373;SDS011;15616;40.148;-102.718;2022-10-22T02:14:06;9.30;;;3.13;;
28373;SDS011;15616;40.148;-102.718;2022-10-22T02:16:36;10.00;;;2.90;;
28373;SDS011;15616;40.148;-102.718;2022-10-22T02:19:26;12.73;;;3.33;;
28373;SDS011;15616;40.148;-102.718;2022-10-22T02:21:59;14.00;;;3.85;;
28373;SDS011;15616;40.148;-102.718;2022-10-22T02:24:25;10.02;;;3.15;;
28373;SDS011;15616;40.148;-102.718;2022-10-22T02:27:53;12.93;;;3.15;;
28373;SDS011;15616;40.148;-102.718;2022-10-22T02:32:27;12.77;;;3.38;;
28373;SDS011;15616;40.148;-102.718;2022-10-22T02:34:59;10.02;;;2.85;;
28373;SDS011;15616;40.148;-102.718;2022-10-22T02:37:26;12.63;;;3.10;;
28373;SDS011;15616;40.148;-102.718;2022-10-22T02:39:53;8.40;;;2.55;;
28373;SDS011;15616;40.148;-102.718;2022-10-22T02:42:22;12.23;;;3.35;;
28373;SDS011;15616;40.148;-102.718;2022-10-22T02:44:50;12.95;;;3.03;;
28373;SDS011;15616;40.148;-102.718;2022-10-22T02:47:16;8.75;;;2.90;;
28373;SDS011;15616;40.148;-102.718;2022-10-22T02:49:41;9.75;;;2.88;;
28373;SDS011;15616;40.148;-102.718;2022-10-22T02:52:07;10.65;;;3.03;;
28373;SDS011;15616;40.148;-102.718;2022-10-22T02:54:33;7.35;;;3.20;;
28373;SDS011;15616;40.148;-102.718;2022-10-22T02:56:59;12.75;;;3.30;;
28373;SDS011;15616;40.148;-102.718;2022-10-22T02:59:25;14.57;;;3.60;;
28373;SDS011;15616;40.148;-102.718;2022-10-22T03:01:51;11.45;;;3.03;;
28373;SDS011;15616;40.148;-102.718;2022-10-22T03:04:16;8.90;;;3.20;;
28373;SDS011;15616;40.148;-102.718;2022-10-22T03:06:42;11.90;;;3.03;;
28373;SDS011;15616;40.148;-102.718;2022-10-22T03:09:09;11.90;;;3.25;;
28373;SDS011;15616;40.148;-102.718;2022-10-22T03:11:35;12.52;;;3.20;;
28373;SDS011;15616;40.148;-102.718;2022-10-22T03:14:01;11.75;;;3.20;;
28373;SDS011;15616;40.148;-102.718;2022-10-22T03:16:26;12.80;;;3.53;;
28373;SDS011;15616;40.148;-102.718;2022-10-22T03:18:52;16.02;;;3.47;;
28373;SDS011;15616;40.148;-102.718;2022-10-22T03:21:22;15.68;;;3.58;;
28373;SDS011;15616;40.148;-102.718;2022-10-22T03:23:58;10.38;;;3.58;;
28373;SDS011;15616;40.148;-102.718;2022-10-22T03:26:28;12.60;;;3.40;;
28373;SDS011;15616;40.148;-102.718;2022-10-22T03:28:55;12.27;;;3.08;;
28373;SDS011;15616;40.148;-102.718;2022-10-22T03:31:21;11.25;;;2.78;;
28373;SDS011;15616;40.148;-102.718;2022-10-22T03:33:47;9.40;;;2.88;;
28373;SDS011;15616;40.148;-102.718;2022-10-22T03:36:13;9.57;;;3.00;;
28373;SDS011;15616;40.148;-102.718;2022-10-22T03:38:39;9.07;;;2.95;;
28373;SDS011;15616;40.148;-102.718;2022-10-22T03:41:05;7.97;;;2.97;;
28373;SDS011;15616;40.148;-102.718;2022-10-22T03:43:35;10.63;;;3.15;;
28373;SDS011;15616;40.148;-102.718;2022-10-22T03:46:03;8.40;;;3.00;;
28373;SDS011;15616;40.148;-102.718;2022-10-22T03:48:29;11.32;;;3.08;;
28373;SDS011;15616;40.148;-102.718;2022-10-22T03:50:55;10.48;;;2.97;;
28373;SDS011;15616;40.148;-102.718;2022-10-22T03:53:21;13.30;;;3.00;;
28373;SDS011;15616;40.148;-102.718;2022-10-22T03:55:47;10.43;;;3.03;;
28373;SDS011;15616;40.148;-102.718;2022-10-22T03:58:13;9.07;;;2.95;;
28373;SDS011;15616;40.148;-102.718;2022-10-22T04:00:39;12.57;;;3.00;;
28373;SDS011;15616;40.148;-102.718;2022-10-22T04:03:05;7.95;;;3.15;;
28373;SDS011;15616;40.148;-102.718;2022-10-22T04:05:31;14.40;;;3.30;;
28373;SDS011;15616;40.148;-102.718;2022-10-22T04:07:58;12.60;;;2.92;;
28373;SDS011;15616;40.148;-102.718;2022-10-22T04:10:24;10.07;;;3.15;;
28373;SDS011;15616;40.148;-102.718;2022-10-22T04:12:50;8.85;;;2.92;;
28373;SDS011;15616;40.148;-102.718;2022-10-22T04:15:16;10.57;;;3.08;;
28373;SDS011;15616;40.148;-102.718;2022-10-22T04:17:42;10.45;;;3.22;;
28373;SDS011;15616;40.148;-102.718;2022-10-22T04:20:08;11.57;;;3.20;;
28373;SDS011;15616;40.148;-102.718;2022-10-22T04:22:35;9.23;;;3.03;;
28373;SDS011;15616;40.148;-102.718;2022-10-22T04:25:02;10.07;;;3.10;;
28373;SDS011;15616;40.148;-102.718;2022-10-22T04:27:32;12.93;;;3.60;;
28373;SDS011;15616;40.148;-102.718;2022-10-22T04:29:58;10.80;;;3.05;;
28373;SDS011;15616;40.148;-102.718;2022-10-22T04:32:27;10.07;;;2.83;;
28373;SDS011;15616;40.148;-102.718;2022-10-22T04:34:53;10.73;;;3.13;;
28373;SDS011;15616;40.148;-102.718;2022-10-22T04:37:19;11.77;;;2.85;;
28373;SDS011;15616;40.148;-102.718;2022-10-22T04:39:45;11.15;;;3.55;;
28373;SDS011;15616;40.148;-102.718;2022-10-22T04:42:11;10.50;;;3.22;;
28373;SDS011;15616;40.148;-102.718;2022-10-22T04:44:37;9.52;;;2.50;;
28373;SDS011;15616;40.148;-102.718;2022-10-22T04:47:03;9.13;;;2.55;;
28373;SDS011;15616;40.148;-102.718;2022-10-22T04:49:29;9.82;;;3.15;;
28373;SDS011;15616;40.148;-102.718;2022-10-22T04:51:54;10.15;;;3.05;;
28373;SDS011;15616;40.148;-102.718;2022-10-22T04:54:21;11.10;;;3.00;;
28373;SDS011;15616;40.148;-102.718;2022-10-22T04:56:47;13.15;;;3.13;;
28373;SDS011;15616;40.148;-102.718;2022-10-22T04:59:13;9.18;;;2.60;;
28373;SDS011;15616;40.148;-102.718;2022-10-22T05:01:40;14.02;;;3.20;;
28373;SDS011;15616;40.148;-102.718;2022-10-22T05:04:12;10.02;;;3.20;;
28373;SDS011;15616;40.148;-102.718;2022-10-22T05:06:40;7.88;;;2.42;;
28373;SDS011;15616;40.148;-102.718;2022-10-22T05:09:09;10.75;;;3.42;;
28373;SDS011;15616;40.148;-102.718;2022-10-22T05:11:40;10.27;;;2.65;;
28373;SDS011;15616;40.148;-102.718;2022-10-22T05:14:09;11.50;;;2.80;;
28373;SDS011;15616;40.148;-102.718;2022-10-22T05:16:35;9.30;;;2.88;;
28373;SDS011;15616;40.148;-102.718;2022-10-22T05:19:05;8.85;;;2.97;;
28373;SDS011;15616;40.148;-102.718;2022-10-22T05:21:31;10.43;;;3.17;;
28373;SDS011;15616;40.148;-102.718;2022-10-22T05:23:58;7.32;;;2.30;;
28373;SDS011;15616;40.148;-102.718;2022-10-22T05:26:24;13.73;;;3.55;;
28373;SDS011;15616;40.148;-102.718;2022-10-22T05:28:51;8.52;;;3.08;;
28373;SDS011;15616;40.148;-102.718;2022-10-22T05:31:17;11.32;;;3.22;;
28373;SDS011;15616;40.148;-102.718;2022-10-22T05:33:44;10.13;;;2.78;;
28373;SDS011;15616;40.148;-102.718;2022-10-22T05:36:11;10.93;;;3.17;;
28373;SDS011;15616;40.148;-102.718;2022-10-22T05:38:39;11.27;;;2.65;;
28373;SDS011;15616;40.148;-102.718;2022-10-22T05:41:06;16.70;;;3.45;;
28373;SDS011;15616;40.148;-102.718;2022-10-22T05:43:35;11.02;;;3.38;;
28373;SDS011;15616;40.148;-102.718;2022-10-22T05:46:05;15.35;;;3.28;;
28373;SDS011;15616;40.148;-102.718;2022-10-22T05:48:36;8.38;;;3.47;;
28373;SDS011;15616;40.148;-102.718;2022-10-22T05:51:03;11.10;;;2.80;;
28373;SDS011;15616;40.148;-102.718;2022-10-22T05:53:31;8.40;;;2.50;;
28373;SDS011;15616;40.148;-102.718;2022-10-22T05:56:01;12.93;;;3.45;;
28373;SDS011;15616;40.148;-102.718;2022-10-22T05:58:28;15.50;;;3.42;;
28373;SDS011;15616;40.148;-102.718;2022-10-22T06:01:04;14.82;;;3.63;;
28373;SDS011;15616;40.148;-102.718;2022-10-22T06:03:37;13.50;;;3.25;;
28373;SDS011;15616;40.148;-102.718;2022-10-22T06:06:25;20.88;;;3.95;;
28373;SDS011;15616;40.148;-102.718;2022-10-22T06:11:58;16.05;;;3.10;;
28373;SDS011;15616;40.148;-102.718;2022-10-22T06:14:24;19.55;;;3.05;;
28373;SDS011;15616;40.148;-102.718;2022-10-22T06:16:51;13.38;;;3.22;;
28373;SDS011;15616;40.148;-102.718;2022-10-22T06:19:18;17.00;;;3.25;;
28373;SDS011;15616;40.148;-102.718;2022-10-22T06:21:46;17.35;;;3.22;;
28373;SDS011;15616;40.148;-102.718;2022-10-22T06:24:12;13.73;;;3.03;;
28373;SDS011;15616;40.148;-102.718;2022-10-22T06:26:39;15.73;;;3.53;;
28373;SDS011;15616;40.148;-102.718;2022-10-22T06:29:05;15.10;;;3.58;;
28373;SDS011;15616;40.148;-102.718;2022-10-22T06:31:31;19.58;;;3.80;;
28373;SDS011;15616;40.148;-102.718;2022-10-22T06:34:04;16.23;;;3.20;;
28373;SDS011;15616;40.148;-102.718;2022-10-22T06:36:32;22.50;;;3.70;;
28373;SDS011;15616;40.148;-102.718;2022-10-22T06:38:58;16.88;;;3.58;;
28373;SDS011;15616;40.148;-102.718;2022-10-22T06:41:24;13.10;;;3.00;;
28373;SDS011;15616;40.148;-102.718;2022-10-22T06:43:51;18.73;;;3.20;;
28373;SDS011;15616;40.148;-102.718;2022-10-22T06:46:18;18.70;;;3.47;;
28373;SDS011;15616;40.148;-102.718;2022-10-22T06:48:52;15.73;;;3.30;;
28373;SDS011;15616;40.148;-102.718;2022-10-22T06:51:20;15.35;;;3.45;;
28373;SDS011;15616;40.148;-102.718;2022-10-22T06:53:46;17.25;;;3.08;;
28373;SDS011;15616;40.148;-102.718;2022-10-22T06:56:13;22.08;;;3.83;;
28373;SDS011;15616;40.148;-102.718;2022-10-22T06:58:47;14.88;;;3.42;;
28373;SDS011;15616;40.148;-102.718;2022-10-22T07:01:14;26.65;;;3.85;;
28373;SDS011;15616;40.148;-102.718;2022-10-22T07:03:41;30.27;;;4.18;;
28373;SDS011;15616;40.148;-102.718;2022-10-22T07:06:08;29.55;;;4.25;;
28373;SDS011;15616;40.148;-102.718;2022-10-22T07:08:35;51.42;;;6.18;;
28373;SDS011;15616;40.148;-102.718;2022-10-22T07:11:44;23.70;;;4.43;;
28373;SDS011;15616;40.148;-102.718;2022-10-22T07:13:53;19.10;;;3.50;;
28373;SDS011;15616;40.148;-102.718;2022-10-22T07:16:20;34.10;;;4.47;;
28373;SDS011;15616;40.148;-102.718;2022-10-22T07:18:46;34.28;;;4.18;;
28373;SDS011;15616;40.148;-102.718;2022-10-22T07:21:13;37.03;;;4.90;;
28373;SDS011;15616;40.148;-102.718;2022-10-22T07:23:41;35.83;;;4.97;;
28373;SDS011;15616;40.148;-102.718;2022-10-22T07:26:07;39.92;;;4.45;;
28373;SDS011;15616;40.148;-102.718;2022-10-22T07:28:34;47.67;;;5.22;;
28373;SDS011;15616;40.148;-102.718;2022-10-22T07:31:02;43.70;;;4.88;;
28373;SDS011;15616;40.148;-102.718;2022-10-22T07:33:29;35.80;;;4.22;;
28373;SDS011;15616;40.148;-102.718;2022-10-22T07:35:58;34.22;;;4.43;;
28373;SDS011;15616;40.148;-102.718;2022-10-22T07:38:25;18.95;;;4.00;;
28373;SDS011;15616;40.148;-102.718;2022-10-22T07:40:52;16.38;;;3.35;;
28373;SDS011;15616;40.148;-102.718;2022-10-22T07:43:18;21.45;;;3.40;;
28373;SDS011;15616;40.148;-102.718;2022-10-22T07:45:44;31.00;;;3.85;;
28373;SDS011;15616;40.148;-102.718;2022-10-22T07:48:10;25.27;;;3.67;;
28373;SDS011;15616;40.148;-102.718;2022-10-22T07:50:36;20.60;;;4.13;;
28373;SDS011;15616;40.148;-102.718;2022-10-22T07:53:01;35.28;;;4.55;;
28373;SDS011;15616;40.148;-102.718;2022-10-22T07:55:27;30.63;;;4.85;;
28373;SDS011;15616;40.148;-102.718;2022-10-22T07:57:53;34.65;;;4.65;;
28373;SDS011;15616;40.148;-102.718;2022-10-22T08:00:19;30.17;;;4.32;;
28373;SDS011;15616;40.148;-102.718;2022-10-22T08:02:45;37.65;;;5.15;;
28373;SDS011;15616;40.148;-102.718;2022-10-22T08:05:11;31.88;;;4.53;;
28373;SDS011;15616;40.148;-102.718;2022-10-22T08:07:38;30.60;;;4.43;;
28373;SDS011;15616;40.148;-102.718;2022-10-22T08:10:04;25.50;;;4.38;;
28373;SDS011;15616;40.148;-102.718;2022-10-22T08:12:31;24.45;;;3.92;;
28373;SDS011;15616;40.148;-102.718;2022-10-22T08:14:57;27.38;;;4.20;;
28373;SDS011;15616;40.148;-102.718;2022-10-22T08:17:25;23.42;;;3.92;;
28373;SDS011;15616;40.148;-102.718;2022-10-22T08:19:51;24.52;;;3.70;;
28373;SDS011;15616;40.148;-102.718;2022-10-22T08:22:17;21.98;;;4.40;;
28373;SDS011;15616;40.148;-102.718;2022-10-22T08:24:43;21.05;;;4.22;;
28373;SDS011;15616;40.148;-102.718;2022-10-22T08:27:09;25.35;;;4.18;;
28373;SDS011;15616;40.148;-102.718;2022-10-22T08:29:35;17.85;;;3.85;;
28373;SDS011;15616;40.148;-102.718;2022-10-22T08:32:01;25.63;;;3.60;;
28373;SDS011;15616;40.148;-102.718;2022-10-22T08:34:27;17.85;;;4.35;;
28373;SDS011;15616;40.148;-102.718;2022-10-22T08:36:53;14.30;;;3.65;;
28373;SDS011;15616;40.148;-102.718;2022-10-22T08:39:19;16.05;;;3.63;;
28373;SDS011;15616;40.148;-102.718;2022-10-22T08:41:58;16.70;;;3.20;;
28373;SDS011;15616;40.148;-102.718;2022-10-22T08:50:22;21.35;;;4.38;;
28373;SDS011;15616;40.148;-102.718;2022-10-22T08:52:58;21.27;;;3.55;;
28373;SDS011;15616;40.148;-102.718;2022-10-22T08:55:27;18.92;;;3.42;;
28373;SDS011;15616;40.148;-102.718;2022-10-22T08:58:00;32.17;;;4.00;;
28373;SDS011;15616;40.148;-102.718;2022-10-22T09:00:43;24.75;;;3.58;;
28373;SDS011;15616;40.148;-102.718;2022-10-22T09:06:11;23.50;;;3.47;;
28373;SDS011;15616;40.148;-102.718;2022-10-22T09:08:51;15.55;;;3.38;;
28373;SDS011;15616;40.148;-102.718;2022-10-22T09:11:22;15.90;;;3.42;;
28373;SDS011;15616;40.148;-102.718;2022-10-22T09:13:55;11.48;;;3.03;;
28373;SDS011;15616;40.148;-102.718;2022-10-22T09:16:29;13.70;;;2.90;;
28373;SDS011;15616;40.148;-102.718;2022-10-22T09:24:27;15.25;;;3.17;;
28373;SDS011;15616;40.148;-102.718;2022-10-22T09:27:03;21.30;;;3.22;;
28373;SDS011;15616;40.148;-102.718;2022-10-22T09:29:36;15.00;;;3.00;;
28373;SDS011;15616;40.148;-102.718;2022-10-22T09:32:02;15.70;;;3.58;;
28373;SDS011;15616;40.148;-102.718;2022-10-22T09:34:28;11.68;;;3.25;;
28373;SDS011;15616;40.148;-102.718;2022-10-22T09:36:58;17.48;;;3.03;;
28373;SDS011;15616;40.148;-102.718;2022-10-22T09:39:50;11.43;;;3.10;;
28373;SDS011;15616;40.148;-102.718;2022-10-22T09:42:17;12.23;;;3.20;;
28373;SDS011;15616;40.148;-102.718;2022-10-22T09:44:50;19.75;;;3.17;;
28373;SDS011;15616;40.148;-102.718;2022-10-22T09:50:26;14.32;;;3.13;;
28373;SDS011;15616;40.148;-102.718;2022-10-22T09:55:58;17.30;;;3.88;;
28373;SDS011;15616;40.148;-102.718;2022-10-22T09:58:25;15.10;;;3.60;;
28373;SDS011;15616;40.148;-102.718;2022-10-22T10:00:53;19.42;;;3.92;;
28373;SDS011;15616;40.148;-102.718;2022-10-22T10:03:25;17.52;;;3.72;;
28373;SDS011;15616;40.148;-102.718;2022-10-22T10:05:54;13.68;;;3.47;;
28373;SDS011;15616;40.148;-102.718;2022-10-22T10:08:22;19.52;;;3.58;;
28373;SDS011;15616;40.148;-102.718;2022-10-22T10:10:50;14.32;;;3.20;;
28373;SDS011;15616;40.148;-102.718;2022-10-22T10:13:21;15.43;;;3.28;;
28373;SDS011;15616;40.148;-102.718;2022-10-22T10:16:11;13.93;;;2.97;;
28373;SDS011;15616;40.148;-102.718;2022-10-22T10:24:25;16.63;;;3.20;;
28373;SDS011;15616;40.148;-102.718;2022-10-22T10:35:02;18.23;;;3.33;;
28373;SDS011;15616;40.148;-102.718;2022-10-22T10:37:51;19.35;;;3.10;;
28373;SDS011;15616;40.148;-102.718;2022-10-22T10:49:21;20.70;;;3.67;;
28373;SDS011;15616;40.148;-102.718;2022-10-22T10:56:57;14.88;;;3.25;;
28373;SDS011;15616;40.148;-102.718;2022-10-22T10:59:34;16.08;;;3.20;;
28373;SDS011;15616;40.148;-102.718;2022-10-22T11:02:20;20.70;;;3.70;;
28373;SDS011;15616;40.148;-102.718;2022-10-22T11:05:02;20.30;;;3.42;;
28373;SDS011;15616;40.148;-102.718;2022-10-22T11:07:39;14.23;;;3.88;;
28373;SDS011;15616;40.148;-102.718;2022-10-22T11:10:35;12.15;;;3.25;;
28373;SDS011;15616;40.148;-102.718;2022-10-22T11:13:29;17.27;;;4.07;;
28373;SDS011;15616;40.148;-102.718;2022-10-22T11:16:09;13.43;;;3.25;;
28373;SDS011;15616;40.148;-102.718;2022-10-22T11:19:19;14.70;;;3.17;;
28373;SDS011;15616;40.148;-102.718;2022-10-22T11:21:44;15.88;;;3.53;;
28373;SDS011;15616;40.148;-102.718;2022-10-22T11:26:56;19.00;;;3.85;;
28373;SDS011;15616;40.148;-102.718;2022-10-22T11:29:33;14.90;;;4.00;;
28373;SDS011;15616;40.148;-102.718;2022-10-22T11:32:10;16.20;;;3.42;;
28373;SDS011;15616;40.148;-102.718;2022-10-22T11:34:42;16.60;;;3.63;;
28373;SDS011;15616;40.148;-102.718;2022-10-22T11:37:20;10.77;;;3.80;;
28373;SDS011;15616;40.148;-102.718;2022-10-22T11:39:51;19.77;;;3.72;;
28373;SDS011;15616;40.148;-102.718;2022-10-22T11:42:22;13.95;;;3.90;;
28373;SDS011;15616;40.148;-102.718;2022-10-22T11:58:29;15.20;;;3.40;;
28373;SDS011;15616;40.148;-102.718;2022-10-22T12:06:04;19.55;;;3.78;;
28373;SDS011;15616;40.148;-102.718;2022-10-22T12:14:20;13.43;;;3.70;;
28373;SDS011;15616;40.148;-102.718;2022-10-22T12:16:52;12.98;;;3.10;;
28373;SDS011;15616;40.148;-102.718;2022-10-22T12:21:51;13.10;;;3.28;;
28373;SDS011;15616;40.148;-102.718;2022-10-22T12:24:20;12.63;;;3.35;;
28373;SDS011;15616;40.148;-102.718;2022-10-22T12:26:48;13.77;;;3.20;;
28373;SDS011;15616;40.148;-102.718;2022-10-22T12:29:17;15.23;;;3.67;;
28373;SDS011;15616;40.148;-102.718;2022-10-22T12:31:47;15.35;;;3.50;;
28373;SDS011;15616;40.148;-102.718;2022-10-22T12:34:19;16.15;;;3.60;;
28373;SDS011;15616;40.148;-102.718;2022-10-22T12:36:49;14.50;;;3.25;;
28373;SDS011;15616;40.148;-102.718;2022-10-22T12:39:20;15.18;;;3.65;;
28373;SDS011;15616;40.148;-102.718;2022-10-22T12:44:17;13.27;;;4.07;;
28373;SDS011;15616;40.148;-102.718;2022-10-22T12:46:44;16.42;;;3.75;;
28373;SDS011;15616;40.148;-102.718;2022-10-22T12:49:21;18.05;;;3.80;;
28373;SDS011;15616;40.148;-102.718;2022-10-22T12:51:59;13.95;;;3.38;;
28373;SDS011;15616;40.148;-102.718;2022-10-22T12:54:31;18.30;;;3.72;;
28373;SDS011;15616;40.148;-102.718;2022-10-22T12:56:58;11.63;;;3.75;;
28373;SDS011;15616;40.148;-102.718;2022-10-22T12:59:29;14.52;;;3.80;;
28373;SDS011;15616;40.148;-102.718;2022-10-22T13:01:59;13.05;;;4.10;;
28373;SDS011;15616;40.148;-102.718;2022-10-22T13:04:36;13.00;;;3.35;;
28373;SDS011;15616;40.148;-102.718;2022-10-22T13:07:04;15.38;;;3.28;;
28373;SDS011;15616;40.148;-102.718;2022-10-22T13:09:37;12.90;;;3.80;;
28373;SDS011;15616;40.148;-102.718;2022-10-22T13:12:05;15.82;;;3.75;;
28373;SDS011;15616;40.148;-102.718;2022-10-22T13:14:35;12.02;;;4.20;;
28373;SDS011;15616;40.148;-102.718;2022-10-22T13:19:43;15.02;;;3.90;;
28373;SDS011;15616;40.148;-102.718;2022-10-22T13:24:53;14.25;;;3.95;;
28373;SDS011;15616;40.148;-102.718;2022-10-22T13:27:21;16.25;;;4.13;;
28373;SDS011;15616;40.148;-102.718;2022-10-22T13:29:47;17.05;;;3.83;;
28373;SDS011;15616;40.148;-102.718;2022-10-22T13:32:26;19.73;;;4.32;;
28373;SDS011;15616;40.148;-102.718;2022-10-22T13:35:03;15.73;;;3.55;;
28373;SDS011;15616;40.148;-102.718;2022-10-22T13:37:30;9.77;;;3.33;;
28373;SDS011;15616;40.148;-102.718;2022-10-22T13:39:58;12.23;;;3.33;;
28373;SDS011;15616;40.148;-102.718;2022-10-22T13:42:24;15.57;;;3.67;;
28373;SDS011;15616;40.148;-102.718;2022-10-22T13:44:50;11.45;;;3.03;;
28373;SDS011;15616;40.148;-102.718;2022-10-22T13:47:22;18.15;;;3.63;;
28373;SDS011;15616;40.148;-102.718;2022-10-22T13:49:50;13.32;;;3.25;;
28373;SDS011;15616;40.148;-102.718;2022-10-22T13:52:23;13.93;;;4.05;;
28373;SDS011;15616;40.148;-102.718;2022-10-22T13:54:57;16.17;;;3.90;;
28373;SDS011;15616;40.148;-102.718;2022-10-22T13:57:23;17.25;;;3.58;;
28373;SDS011;15616;40.148;-102.718;2022-10-22T13:59:49;14.15;;;3.50;;
28373;SDS011;15616;40.148;-102.718;2022-10-22T14:02:15;14.00;;;3.58;;
28373;SDS011;15616;40.148;-102.718;2022-10-22T14:04:43;13.38;;;3.47;;
28373;SDS011;15616;40.148;-102.718;2022-10-22T14:07:13;16.60;;;3.70;;
28373;SDS011;15616;40.148;-102.718;2022-10-22T14:09:40;15.65;;;3.30;;
28373;SDS011;15616;40.148;-102.718;2022-10-22T14:12:13;15.35;;;3.17;;
28373;SDS011;15616;40.148;-102.718;2022-10-22T14:14:40;12.73;;;3.72;;
28373;SDS011;15616;40.148;-102.718;2022-10-22T14:17:13;14.70;;;3.67;;
28373;SDS011;15616;40.148;-102.718;2022-10-22T14:19:44;13.02;;;3.45;;
28373;SDS011;15616;40.148;-102.718;2022-10-22T14:22:18;11.55;;;3.30;;
28373;SDS011;15616;40.148;-102.718;2022-10-22T14:24:45;12.77;;;3.80;;
28373;SDS011;15616;40.148;-102.718;2022-10-22T14:27:12;11.20;;;3.45;;
28373;SDS011;15616;40.148;-102.718;2022-10-22T14:29:39;19.77;;;3.97;;
28373;SDS011;15616;40.148;-102.718;2022-10-22T14:32:12;14.07;;;4.18;;
28373;SDS011;15616;40.148;-102.718;2022-10-22T14:34:40;15.13;;;4.03;;
28373;SDS011;15616;40.148;-102.718;2022-10-22T14:37:13;13.23;;;4.18;;
28373;SDS011;15616;40.148;-102.718;2022-10-22T14:39:41;13.07;;;4.10;;
28373;SDS011;15616;40.148;-102.718;2022-10-22T14:42:09;13.93;;;3.75;;
28373;SDS011;15616;40.148;-102.718;2022-10-22T14:44:35;12.80;;;4.00;;
28373;SDS011;15616;40.148;-102.718;2022-10-22T14:47:01;11.38;;;3.70;;
28373;SDS011;15616;40.148;-102.718;2022-10-22T14:49:27;12.50;;;3.38;;
28373;SDS011;15616;40.148;-102.718;2022-10-22T14:51:53;14.77;;;3.78;;
28373;SDS011;15616;40.148;-102.718;2022-10-22T14:54:19;21.38;;;4.15;;
28373;SDS011;15616;40.148;-102.718;2022-10-22T14:56:45;17.55;;;4.00;;
28373;SDS011;15616;40.148;-102.718;2022-10-22T14:59:10;15.23;;;3.45;;
28373;SDS011;15616;40.148;-102.718;2022-10-22T15:01:36;14.00;;;3.63;;
28373;SDS011;15616;40.148;-102.718;2022-10-22T15:04:03;13.50;;;3.90;;
28373;SDS011;15616;40.148;-102.718;2022-10-22T15:06:29;14.05;;;4.10;;
28373;SDS011;15616;40.148;-102.718;2022-10-22T15:08:55;12.75;;;3.88;;
28373;SDS011;15616;40.148;-102.718;2022-10-22T15:11:21;10.80;;;3.80;;
28373;SDS011;15616;40.148;-102.718;2022-10-22T15:13:47;15.27;;;3.63;;
28373;SDS011;15616;40.148;-102.718;2022-10-22T15:16:14;15.45;;;4.00;;
28373;SDS011;15616;40.148;-102.718;2022-10-22T15:18:40;11.85;;;4.13;;
28373;SDS011;15616;40.148;-102.718;2022-10-22T15:21:10;15.80;;;4.20;;
28373;SDS011;15616;40.148;-102.718;2022-10-22T15:23:39;18.95;;;4.13;;
28373;SDS011;15616;40.148;-102.718;2022-10-22T15:26:08;11.02;;;3.15;;
28373;SDS011;15616;40.148;-102.718;2022-10-22T15:28:36;16.33;;;4.20;;
28373;SDS011;15616;40.148;-102.718;2022-10-22T15:31:03;13.27;;;3.92;;
28373;SDS011;15616;40.148;-102.718;2022-10-22T15:33:30;11.63;;;3.88;;
28373;SDS011;15616;40.148;-102.718;2022-10-22T15:35:56;13.80;;;4.10;;
28373;SDS011;15616;40.148;-102.718;2022-10-22T15:38:28;12.07;;;3.55;;
28373;SDS011;15616;40.148;-102.718;2022-10-22T15:41:01;11.57;;;3.53;;
28373;SDS011;15616;40.148;-102.718;2022-10-22T15:43:31;14.98;;;3.85;;
28373;SDS011;15616;40.148;-102.718;2022-10-22T15:46:08;12.63;;;3.78;;
28373;SDS011;15616;40.148;-102.718;2022-10-22T15:48:36;15.57;;;4.13;;
28373;SDS011;15616;40.148;-102.718;2022-10-22T15:51:16;14.18;;;3.72;;
28373;SDS011;15616;40.148;-102.718;2022-10-22T15:53:43;11.13;;;3.70;;
28373;SDS011;15616;40.148;-102.718;2022-10-22T15:56:14;13.73;;;3.97;;
28373;SDS011;15616;40.148;-102.718;2022-10-22T15:58:40;13.50;;;3.95;;
28373;SDS011;15616;40.148;-102.718;2022-10-22T16:01:07;15.80;;;3.97;;